createdAt,value
2018-08-30T00:00:32.071Z,100.00
2018-08-30T00:03:01.168Z,100.00
2018-08-30T00:05:29.933Z,100.00
2018-08-30T00:07:59.090Z,100.00
2018-08-30T00:10:27.879Z,100.00
2018-08-30T00:12:57.029Z,100.00
2018-08-30T00:15:26.179Z,100.00
2018-08-30T00:17:55.846Z,100.00
2018-08-30T00:20:24.935Z,100.00
2018-08-30T00:22:54.424Z,100.00
2018-08-30T00:25:23.180Z,100.00
2018-08-30T00:27:52.254Z,100.00
2018-08-30T00:30:21.043Z,100.00
2018-08-30T00:32:49.899Z,100.00
2018-08-30T00:35:19.043Z,100.00
2018-08-30T00:37:47.902Z,100.00
2018-08-30T00:40:16.913Z,100.00
2018-08-30T00:42:45.730Z,100.00
2018-08-30T00:45:14.652Z,100.00
2018-08-30T00:47:49.987Z,100.00
2018-08-30T00:50:19.112Z,100.00
2018-08-30T00:52:48.716Z,100.00
2018-08-30T00:55:17.475Z,100.00
2018-08-30T00:57:46.605Z,100.00
2018-08-30T01:00:15.446Z,100.00
2018-08-30T01:02:44.486Z,100.00
2018-08-30T01:05:13.372Z,100.00
2018-08-30T01:07:42.202Z,100.00
2018-08-30T01:10:11.044Z,100.00
2018-08-30T01:12:44.179Z,100.00
2018-08-30T01:15:12.955Z,100.00
2018-08-30T01:17:41.795Z,100.00
2018-08-30T01:20:10.846Z,100.00
2018-08-30T01:22:39.703Z,100.00
2018-08-30T01:25:08.775Z,100.00
2018-08-30T01:27:38.210Z,100.00
2018-08-30T01:30:07.461Z,100.00
2018-08-30T01:32:36.502Z,100.00
2018-08-30T01:35:05.705Z,100.00
2018-08-30T01:37:34.810Z,100.00
2018-08-30T01:40:03.643Z,100.00
2018-08-30T01:42:32.700Z,100.00
2018-08-30T01:45:01.584Z,100.00
2018-08-30T01:47:30.494Z,100.00
2018-08-30T01:49:59.604Z,100.00
2018-08-30T01:52:28.973Z,100.00
2018-08-30T01:54:57.779Z,100.00
2018-08-30T01:57:26.686Z,100.00
2018-08-30T01:59:56.461Z,100.00
2018-08-30T02:02:25.251Z,100.00
2018-08-30T02:04:54.348Z,100.00
2018-08-30T02:07:24.058Z,100.00
2018-08-30T02:09:52.880Z,100.00
2018-08-30T02:12:22.199Z,100.00
2018-08-30T02:14:51.571Z,100.00
2018-08-30T02:17:20.344Z,100.00
2018-08-30T02:19:49.451Z,100.00
2018-08-30T02:22:18.709Z,100.00
2018-08-30T02:24:47.517Z,100.00
2018-08-30T02:27:16.317Z,100.00
2018-08-30T02:29:45.383Z,100.00
2018-08-30T02:32:14.761Z,100.00
2018-08-30T02:34:43.794Z,100.00
2018-08-30T02:37:13.034Z,100.00
2018-08-30T02:39:41.803Z,100.00
2018-08-30T02:42:11.301Z,100.00
2018-08-30T02:44:40.142Z,100.00
2018-08-30T02:47:09.526Z,100.00
2018-08-30T02:49:38.268Z,100.00
2018-08-30T02:52:07.039Z,100.00
2018-08-30T02:54:36.359Z,100.00
2018-08-30T02:57:05.932Z,100.00
2018-08-30T02:59:35.185Z,100.00
2018-08-30T03:02:04.138Z,100.00
2018-08-30T03:04:33.276Z,100.00
2018-08-30T03:07:02.415Z,100.00
2018-08-30T03:09:31.164Z,100.00
2018-08-30T03:12:00.248Z,100.00
2018-08-30T03:14:30.008Z,100.00
2018-08-30T03:16:58.767Z,100.00
2018-08-30T03:19:27.878Z,100.00
2018-08-30T03:21:57.336Z,100.00
2018-08-30T03:24:26.342Z,100.00
2018-08-30T03:26:55.417Z,100.00
2018-08-30T03:29:24.163Z,100.00
2018-08-30T03:31:52.935Z,100.00
2018-08-30T03:34:21.927Z,100.00
2018-08-30T03:36:50.995Z,100.00
2018-08-30T03:39:19.883Z,100.00
2018-08-30T03:41:48.623Z,100.00
2018-08-30T03:44:17.613Z,100.00
2018-08-30T03:46:47.179Z,100.00
2018-08-30T03:49:15.893Z,100.00
2018-08-30T03:51:45.293Z,100.00
2018-08-30T03:54:14.147Z,100.00
2018-08-30T03:56:43.331Z,100.00
2018-08-30T03:59:12.128Z,100.00
2018-08-30T04:01:41.261Z,100.00
2018-08-30T04:04:10.324Z,100.00
2018-08-30T04:06:39.033Z,100.00
2018-08-30T04:09:09.359Z,100.00
2018-08-30T04:11:38.102Z,100.00
2018-08-30T04:14:07.921Z,100.00
2018-08-30T04:16:37.143Z,100.00
2018-08-30T04:19:08.227Z,100.00
2018-08-30T04:21:37.859Z,100.00
2018-08-30T04:24:08.121Z,100.00
2018-08-30T04:26:36.879Z,100.00
2018-08-30T04:29:05.659Z,100.00
2018-08-30T04:31:34.800Z,100.00
2018-08-30T04:34:03.645Z,100.00
2018-08-30T04:36:32.386Z,100.00
2018-08-30T04:39:01.799Z,100.00
2018-08-30T04:41:31.182Z,100.00
2018-08-30T04:43:59.994Z,100.00
2018-08-30T04:46:29.227Z,100.00
2018-08-30T04:48:58.258Z,100.00
2018-08-30T04:51:27.467Z,100.00
2018-08-30T04:53:56.555Z,100.00
2018-08-30T04:56:25.845Z,100.00
2018-08-30T04:58:55.310Z,100.00
2018-08-30T05:01:24.154Z,100.00
2018-08-30T05:03:53.183Z,100.00
2018-08-30T05:06:24.064Z,100.00
2018-08-30T05:08:52.877Z,100.00
2018-08-30T05:11:22.342Z,100.00
2018-08-30T05:13:51.525Z,100.00
2018-08-30T05:16:20.587Z,100.00
2018-08-30T05:18:49.414Z,100.00
2018-08-30T05:21:18.675Z,100.00
2018-08-30T05:23:47.755Z,100.00
2018-08-30T05:26:16.595Z,100.00
2018-08-30T05:28:46.233Z,100.00
2018-08-30T05:31:15.381Z,100.00
2018-08-30T05:33:44.577Z,100.00
2018-08-30T05:36:13.366Z,100.00
2018-08-30T05:38:43.591Z,100.00
2018-08-30T05:41:12.838Z,100.00
2018-08-30T05:43:41.568Z,100.00
2018-08-30T05:46:10.399Z,100.00
2018-08-30T05:48:39.970Z,100.00
2018-08-30T05:51:09.022Z,100.00
2018-08-30T05:53:38.175Z,100.00
2018-08-30T05:56:07.101Z,100.00
2018-08-30T05:58:36.083Z,100.00
2018-08-30T06:01:04.940Z,100.00
2018-08-30T06:03:34.330Z,100.00
2018-08-30T06:06:04.037Z,100.00
2018-08-30T06:08:33.065Z,100.00
2018-08-30T06:11:02.112Z,100.00
2018-08-30T06:13:31.148Z,100.00
2018-08-30T06:16:00.155Z,100.00
2018-08-30T06:18:28.913Z,100.00
2018-08-30T06:20:57.941Z,100.00
2018-08-30T06:23:27.290Z,100.00
2018-08-30T06:25:56.525Z,100.00
2018-08-30T06:28:25.399Z,100.00
2018-08-30T06:30:54.185Z,100.00
2018-08-30T06:33:23.021Z,100.00
2018-08-30T06:35:52.609Z,100.00
2018-08-30T06:38:21.349Z,100.00
2018-08-30T06:40:50.709Z,100.00
2018-08-30T06:43:19.959Z,100.00
2018-08-30T06:45:48.662Z,100.00
2018-08-30T06:48:18.289Z,100.00
2018-08-30T06:50:47.452Z,100.00
2018-08-30T06:53:16.266Z,100.00
2018-08-30T06:55:45.003Z,100.00
2018-08-30T06:58:13.870Z,100.00
2018-08-30T07:00:42.636Z,100.00
2018-08-30T07:03:11.625Z,100.00
2018-08-30T07:05:40.413Z,100.00
2018-08-30T07:08:09.217Z,100.00
2018-08-30T07:10:39.571Z,99.49
2018-08-30T07:13:08.605Z,100.00
2018-08-30T07:15:37.605Z,100.00
2018-08-30T07:18:06.672Z,99.87
2018-08-30T07:20:36.112Z,99.26
2018-08-30T07:23:05.337Z,98.55
2018-08-30T07:25:34.357Z,98.42
2018-08-30T07:28:03.131Z,96.96
2018-08-30T07:30:31.964Z,97.93
2018-08-30T07:33:01.294Z,96.91
2018-08-30T07:35:30.702Z,96.45
2018-08-30T07:37:59.462Z,95.90
2018-08-30T07:40:28.715Z,95.97
2018-08-30T07:42:57.448Z,94.11
2018-08-30T07:45:26.839Z,95.18
2018-08-30T07:47:56.496Z,94.91
2018-08-30T07:50:25.554Z,94.48
2018-08-30T07:52:55.016Z,92.97
2018-08-30T07:55:24.007Z,93.37
2018-08-30T07:57:53.059Z,92.79
2018-08-30T08:00:21.886Z,91.88
2018-08-30T08:02:51.819Z,92.31
2018-08-30T08:05:20.879Z,91.51
2018-08-30T08:07:49.984Z,91.36
2018-08-30T08:10:19.075Z,92.61
2018-08-30T08:12:48.567Z,91.97
2018-08-30T08:15:17.788Z,90.60
2018-08-30T08:17:46.921Z,90.33
2018-08-30T08:20:15.667Z,88.78
2018-08-30T08:22:44.430Z,88.96
2018-08-30T08:25:13.785Z,89.09
2018-08-30T08:27:42.819Z,88.68
2018-08-30T08:30:11.616Z,88.36
2018-08-30T08:32:40.429Z,88.52
2018-08-30T08:35:09.210Z,86.94
2018-08-30T08:37:38.260Z,86.31
2018-08-30T08:40:07.105Z,86.46
2018-08-30T08:42:35.868Z,85.21
2018-08-30T08:45:04.645Z,85.37
2018-08-30T08:47:34.411Z,85.52
2018-08-30T08:50:03.421Z,84.83
2018-08-30T08:52:32.200Z,84.08
2018-08-30T08:55:01.042Z,84.39
2018-08-30T08:57:29.930Z,82.80
2018-08-30T08:59:58.998Z,82.25
2018-08-30T09:02:27.716Z,82.81
2018-08-30T09:04:56.846Z,82.36
2018-08-30T09:07:25.636Z,81.33
2018-08-30T09:09:55.183Z,81.20
2018-08-30T09:12:24.546Z,79.75
2018-08-30T09:14:53.914Z,80.15
2018-08-30T09:17:22.704Z,79.78
2018-08-30T09:19:51.791Z,81.72
2018-08-30T09:22:20.667Z,85.60
2018-08-30T09:24:49.414Z,86.62
2018-08-30T09:27:19.330Z,88.97
2018-08-30T09:29:48.371Z,90.29
2018-08-30T09:32:18.360Z,91.39
2018-08-30T09:34:47.202Z,92.47
2018-08-30T09:37:16.098Z,93.38
2018-08-30T09:39:45.873Z,94.41
2018-08-30T09:42:15.393Z,95.33
2018-08-30T09:44:44.429Z,94.39
2018-08-30T09:47:13.458Z,94.73
2018-08-30T09:49:42.225Z,93.91
2018-08-30T09:52:11.046Z,94.36
2018-08-30T09:54:40.035Z,91.25
2018-08-30T09:57:09.425Z,87.50
2018-08-30T09:59:38.066Z,88.12
2018-08-30T10:02:12.062Z,91.07
2018-08-30T10:04:41.169Z,90.97
2018-08-30T10:07:09.944Z,91.25
2018-08-30T10:09:39.042Z,92.06
2018-08-30T10:12:08.123Z,90.08
2018-08-30T10:14:37.174Z,88.58
2018-08-30T10:17:06.211Z,85.54
2018-08-30T10:19:34.983Z,85.64
2018-08-30T10:22:03.824Z,85.22
2018-08-30T10:24:32.868Z,84.19
2018-08-30T10:27:02.120Z,84.94
2018-08-30T10:29:31.378Z,86.22
2018-08-30T10:32:00.175Z,88.77
2018-08-30T10:34:28.893Z,89.23
2018-08-30T10:36:57.854Z,90.48
2018-08-30T10:39:26.623Z,88.83
2018-08-30T10:41:55.632Z,89.87
2018-08-30T10:44:24.356Z,88.90
2018-08-30T10:46:54.616Z,89.02
2018-08-30T10:49:23.647Z,89.26
2018-08-30T10:51:52.656Z,89.81
2018-08-30T10:54:21.432Z,89.45
2018-08-30T10:56:50.487Z,89.91
2018-08-30T10:59:19.198Z,90.70
2018-08-30T11:01:48.012Z,90.61
2018-08-30T11:04:16.813Z,90.89
2018-08-30T11:06:45.641Z,89.83
2018-08-30T11:09:15.952Z,90.40
2018-08-30T11:11:45.238Z,88.58
2018-08-30T11:14:14.287Z,86.99
2018-08-30T11:16:43.331Z,86.25
2018-08-30T11:19:12.101Z,84.88
2018-08-30T11:21:40.905Z,85.17
2018-08-30T11:24:10.385Z,86.17
2018-08-30T11:26:39.778Z,84.65
2018-08-30T11:29:08.563Z,84.90
2018-08-30T11:31:37.400Z,83.81
2018-08-30T11:34:06.152Z,83.46
2018-08-30T11:36:34.954Z,83.91
2018-08-30T11:39:03.940Z,84.47
2018-08-30T11:41:33.101Z,84.62
2018-08-30T11:44:02.135Z,85.18
2018-08-30T11:46:31.329Z,84.08
2018-08-30T11:49:00.118Z,85.58
2018-08-30T11:51:29.239Z,85.99
2018-08-30T11:53:58.097Z,84.41
2018-08-30T11:56:26.897Z,82.28
2018-08-30T11:58:55.872Z,80.98
2018-08-30T12:01:25.018Z,79.93
2018-08-30T12:03:56.043Z,80.16
2018-08-30T12:06:25.603Z,80.64
2018-08-30T12:08:54.758Z,82.20
2018-08-30T12:11:23.559Z,82.43
2018-08-30T12:13:53.151Z,82.87
2018-08-30T12:16:22.218Z,80.47
2018-08-30T12:18:51.542Z,80.84
2018-08-30T12:21:20.953Z,81.32
2018-08-30T12:23:50.058Z,81.13
2018-08-30T12:26:19.150Z,81.55
2018-08-30T12:28:48.343Z,80.09
2018-08-30T12:31:17.247Z,76.29
2018-08-30T12:33:46.504Z,77.51
2018-08-30T12:36:15.502Z,75.69
2018-08-30T12:38:44.872Z,73.74
2018-08-30T12:41:13.694Z,75.24
2018-08-30T12:43:42.495Z,77.57
2018-08-30T12:46:11.673Z,74.16
2018-08-30T12:48:40.777Z,73.26
2018-08-30T12:51:09.793Z,73.75
2018-08-30T12:53:38.764Z,74.10
2018-08-30T12:56:07.553Z,74.68
2018-08-30T12:58:36.415Z,74.78
2018-08-30T13:01:05.479Z,74.75
2018-08-30T13:03:34.980Z,74.54
2018-08-30T13:06:03.839Z,75.67
2018-08-30T13:08:32.648Z,75.23
2018-08-30T13:11:02.018Z,73.46
2018-08-30T13:13:30.927Z,72.64
2018-08-30T13:15:59.935Z,69.54
2018-08-30T13:18:28.759Z,69.17
2018-08-30T13:20:57.615Z,68.40
2018-08-30T13:23:26.436Z,67.93
2018-08-30T13:25:55.954Z,66.62
2018-08-30T13:28:25.069Z,65.59
2018-08-30T13:30:54.224Z,65.90
2018-08-30T13:33:22.988Z,65.18
2018-08-30T13:35:52.618Z,64.22
2018-08-30T13:38:22.280Z,64.37
2018-08-30T13:40:50.827Z,63.18
2018-08-30T13:43:19.688Z,62.73
2018-08-30T13:45:48.335Z,62.46
2018-08-30T13:48:17.045Z,61.11
2018-08-30T13:50:46.200Z,61.69
2018-08-30T13:53:15.217Z,62.59
2018-08-30T13:55:44.297Z,61.78
2018-08-30T13:58:13.317Z,63.66
2018-08-30T14:00:43.221Z,62.26
2018-08-30T14:03:11.684Z,61.96
2018-08-30T14:05:40.932Z,62.59
2018-08-30T14:08:09.599Z,64.16
2018-08-30T14:10:38.516Z,64.29
2018-08-30T14:13:08.127Z,63.87
2018-08-30T14:15:36.875Z,63.51
2018-08-30T14:18:06.047Z,64.92
2018-08-30T14:20:34.842Z,64.85
2018-08-30T14:23:03.781Z,64.33
2018-08-30T14:25:32.829Z,66.67
2018-08-30T14:28:01.816Z,64.72
2018-08-30T14:30:31.022Z,65.68
2018-08-30T14:32:59.719Z,63.64
2018-08-30T14:35:28.471Z,62.67
2018-08-30T14:37:57.759Z,62.48
2018-08-30T14:40:26.975Z,62.08
2018-08-30T14:42:56.825Z,63.31
2018-08-30T14:45:25.701Z,62.85
2018-08-30T14:47:55.133Z,62.13
2018-08-30T14:50:23.819Z,63.78
2018-08-30T14:52:52.854Z,64.15
2018-08-30T14:55:22.090Z,62.88
2018-08-30T14:57:50.855Z,63.55
2018-08-30T15:00:19.812Z,63.47
2018-08-30T15:02:48.846Z,61.48
2018-08-30T15:05:18.037Z,62.35
2018-08-30T15:07:47.331Z,62.99
2018-08-30T15:10:16.154Z,60.40
2018-08-30T15:12:45.141Z,60.31
2018-08-30T15:15:14.529Z,60.59
2018-08-30T15:17:43.683Z,61.23
2018-08-30T15:20:12.742Z,60.38
2018-08-30T15:22:41.553Z,60.33
2018-08-30T15:25:10.512Z,59.61
2018-08-30T15:27:39.215Z,58.98
2018-08-30T15:30:08.605Z,59.73
2018-08-30T15:32:37.334Z,59.71
2018-08-30T15:35:09.812Z,58.88
2018-08-30T15:37:38.820Z,59.19
2018-08-30T15:40:07.832Z,57.21
2018-08-30T15:42:36.933Z,58.33
2018-08-30T15:45:05.728Z,57.90
2018-08-30T15:47:34.547Z,57.78
2018-08-30T15:50:03.284Z,56.78
2018-08-30T15:52:35.657Z,56.87
2018-08-30T15:55:04.384Z,56.36
2018-08-30T15:57:33.797Z,57.28
2018-08-30T16:00:02.608Z,57.89
2018-08-30T16:02:32.184Z,59.06
2018-08-30T16:05:01.486Z,57.91
2018-08-30T16:07:30.167Z,58.91
2018-08-30T16:09:58.892Z,58.67
2018-08-30T16:12:28.383Z,58.01
2018-08-30T16:14:57.704Z,57.62
2018-08-30T16:17:27.020Z,56.75
2018-08-30T16:19:56.047Z,59.56
2018-08-30T16:22:40.476Z,58.21
2018-08-30T16:25:09.456Z,57.15
2018-08-30T16:27:38.199Z,56.08
2018-08-30T16:30:06.991Z,56.37
2018-08-30T16:32:35.896Z,55.09
2018-08-30T16:35:04.877Z,56.17
2018-08-30T16:37:34.012Z,56.33
2018-08-30T16:40:03.423Z,56.39
2018-08-30T16:42:32.768Z,56.60
2018-08-30T16:45:02.428Z,57.77
2018-08-30T16:47:31.874Z,57.79
2018-08-30T16:50:01.195Z,57.88
2018-08-30T16:52:30.159Z,58.06
2018-08-30T16:54:58.932Z,58.89
2018-08-30T16:57:27.644Z,60.65
2018-08-30T16:59:56.935Z,60.90
2018-08-30T17:02:26.175Z,61.40
2018-08-30T17:04:54.859Z,62.21
2018-08-30T17:07:24.069Z,62.36
2018-08-30T17:09:52.838Z,63.17
2018-08-30T17:12:22.462Z,63.01
2018-08-30T17:14:51.291Z,62.79
2018-08-30T17:17:20.048Z,63.26
2018-08-30T17:19:49.155Z,63.22
2018-08-30T17:22:17.958Z,63.00
2018-08-30T17:24:47.049Z,63.29
2018-08-30T17:27:15.846Z,63.43
2018-08-30T17:29:44.619Z,63.96
2018-08-30T17:32:16.684Z,63.62
2018-08-30T17:34:45.733Z,63.82
2018-08-30T17:37:14.639Z,64.15
2018-08-30T17:39:44.024Z,64.50
2018-08-30T17:42:13.210Z,64.51
2018-08-30T17:44:42.156Z,64.54
2018-08-30T17:47:11.534Z,65.03
2018-08-30T17:49:40.764Z,65.32
2018-08-30T17:52:09.469Z,65.49
2018-08-30T17:54:38.235Z,64.37
2018-08-30T17:57:07.052Z,64.80
2018-08-30T17:59:36.077Z,65.23
2018-08-30T18:02:04.947Z,65.08
2018-08-30T18:04:34.127Z,65.08
2018-08-30T18:07:03.427Z,64.75
2018-08-30T18:09:31.929Z,65.17
2018-08-30T18:12:01.350Z,65.18
2018-08-30T18:14:30.482Z,65.51
2018-08-30T18:16:59.242Z,65.90
2018-08-30T18:19:28.373Z,66.42
2018-08-30T18:21:57.145Z,66.94
2018-08-30T18:24:26.599Z,67.08
2018-08-30T18:26:55.366Z,67.25
2018-08-30T18:29:24.353Z,67.89
2018-08-30T18:31:53.195Z,68.22
2018-08-30T18:34:22.015Z,68.73
2018-08-30T18:36:50.768Z,68.95
2018-08-30T18:39:19.583Z,69.56
2018-08-30T18:41:48.387Z,70.01
2018-08-30T18:44:17.186Z,70.15
2018-08-30T18:46:46.642Z,70.44
2018-08-30T18:49:15.868Z,70.87
2018-08-30T18:51:45.167Z,71.31
2018-08-30T18:54:14.554Z,71.63
2018-08-30T18:56:43.947Z,72.39
2018-08-30T18:59:13.792Z,72.65
2018-08-30T19:01:42.936Z,72.93
2018-08-30T19:04:12.694Z,73.26
2018-08-30T19:06:43.055Z,73.78
2018-08-30T19:09:14.459Z,74.34
2018-08-30T19:11:44.346Z,74.45
2018-08-30T19:14:13.975Z,74.97
2018-08-30T19:16:48.220Z,75.10
2018-08-30T19:19:20.368Z,75.31
2018-08-30T19:21:50.023Z,75.74
2018-08-30T19:24:24.456Z,75.94
2018-08-30T19:26:54.074Z,76.32
2018-08-30T19:29:23.572Z,76.59
2018-08-30T19:31:53.782Z,76.84
2018-08-30T19:34:23.071Z,77.19
2018-08-30T19:36:52.544Z,77.81
2018-08-30T19:39:21.799Z,77.87
2018-08-30T19:41:50.984Z,78.30
2018-08-30T19:44:20.541Z,78.57
2018-08-30T19:46:49.534Z,79.28
2018-08-30T19:49:18.864Z,78.93
2018-08-30T19:51:48.032Z,79.24
2018-08-30T19:54:23.630Z,79.90
2018-08-30T19:56:52.511Z,80.23
2018-08-30T19:59:21.425Z,80.34
2018-08-30T20:01:52.718Z,80.31
2018-08-30T20:04:21.633Z,80.76
2018-08-30T20:06:50.564Z,81.01
2018-08-30T20:09:19.594Z,81.29
2018-08-30T20:11:48.571Z,81.27
2018-08-30T20:14:17.946Z,81.36
2018-08-30T20:16:46.799Z,81.09
2018-08-30T20:19:16.204Z,81.20
2018-08-30T20:21:45.448Z,81.34
2018-08-30T20:24:14.898Z,81.81
2018-08-30T20:26:43.991Z,81.80
2018-08-30T20:29:13.111Z,82.07
2018-08-30T20:31:41.831Z,82.00
2018-08-30T20:34:10.882Z,82.25
2018-08-30T20:36:40.303Z,82.13
2018-08-30T20:39:09.266Z,82.36
2018-08-30T20:41:37.979Z,82.42
2018-08-30T20:44:07.030Z,82.90
2018-08-30T20:46:35.804Z,82.90
2018-08-30T20:49:05.532Z,83.27
2018-08-30T20:51:34.538Z,83.53
2018-08-30T20:54:03.997Z,84.08
2018-08-30T20:56:32.827Z,83.93
2018-08-30T20:59:02.279Z,84.72
2018-08-30T21:01:31.701Z,84.68
2018-08-30T21:04:00.484Z,84.67
2018-08-30T21:06:29.456Z,84.69
2018-08-30T21:08:58.550Z,84.97
2018-08-30T21:11:27.861Z,85.71
2018-08-30T21:13:56.762Z,86.20
2018-08-30T21:16:25.538Z,85.97
2018-08-30T21:18:54.743Z,86.58
2018-08-30T21:21:24.339Z,86.53
2018-08-30T21:23:53.811Z,86.77
2018-08-30T21:26:23.016Z,87.16
2018-08-30T21:28:52.193Z,86.72
2018-08-30T21:31:20.987Z,86.91
2018-08-30T21:33:50.228Z,87.39
2018-08-30T21:36:19.014Z,87.27
2018-08-30T21:38:48.873Z,87.36
2018-08-30T21:41:18.639Z,87.59
2018-08-30T21:43:48.483Z,87.47
2018-08-30T21:46:18.634Z,87.74
2018-08-30T21:48:48.528Z,87.41
2018-08-30T21:51:17.648Z,87.43
2018-08-30T21:53:46.553Z,87.60
2018-08-30T21:56:17.123Z,87.91
2018-08-30T21:58:46.818Z,87.72
2018-08-30T22:01:15.924Z,88.25
2018-08-30T22:03:45.666Z,87.92
2018-08-30T22:06:14.820Z,88.26
2018-08-30T22:08:43.729Z,88.35
2018-08-30T22:11:12.470Z,88.34
2018-08-30T22:13:41.946Z,88.49
2018-08-30T22:16:11.187Z,88.58
2018-08-30T22:18:39.944Z,88.44
2018-08-30T22:21:08.734Z,88.84
2018-08-30T22:23:37.603Z,88.65
2018-08-30T22:26:06.650Z,88.91
2018-08-30T22:28:35.765Z,88.79
2018-08-30T22:31:04.895Z,89.31
2018-08-30T22:33:33.701Z,89.40
2018-08-30T22:36:02.434Z,89.24
2018-08-30T22:38:31.533Z,89.32
2018-08-30T22:41:00.359Z,88.97
2018-08-30T22:43:29.114Z,89.11
2018-08-30T22:45:57.953Z,89.24
2018-08-30T22:48:27.413Z,89.00
2018-08-30T22:50:56.155Z,89.51
2018-08-30T22:53:25.054Z,89.50
2018-08-30T22:55:54.143Z,89.59
2018-08-30T22:58:23.184Z,89.29
2018-08-30T23:00:52.272Z,89.57
2018-08-30T23:03:21.092Z,89.66
2018-08-30T23:05:49.963Z,90.05
2018-08-30T23:08:18.786Z,90.19
2018-08-30T23:10:47.653Z,89.94
2018-08-30T23:13:16.488Z,90.25
2018-08-30T23:15:45.612Z,90.54
2018-08-30T23:18:14.801Z,90.51
2018-08-30T23:20:43.523Z,90.73
2018-08-30T23:23:12.518Z,90.25
2018-08-30T23:25:41.838Z,90.35
2018-08-30T23:28:10.887Z,90.34
2018-08-30T23:30:40.343Z,90.35
2018-08-30T23:33:09.738Z,90.91
2018-08-30T23:35:38.563Z,90.45
2018-08-30T23:38:07.775Z,90.70
2018-08-30T23:40:36.610Z,90.78
2018-08-30T23:43:05.903Z,90.77
2018-08-30T23:45:35.418Z,90.91
2018-08-30T23:48:04.473Z,90.81
2018-08-30T23:50:33.264Z,91.18
2018-08-30T23:53:02.379Z,91.50
2018-08-30T23:55:31.098Z,91.32
2018-08-30T23:58:11.159Z,91.70
